METAR Data
IDs: Format: Raw Decoded Include TAF

Data at: 0902 UTC 03 Aug 2021

KTVL 030853Z AUTO 00000KT 10SM CLR 11/04 A3035 RMK AO2 SLP212 T01110039 58002
KTVL 030753Z AUTO 00000KT 10SM CLR 12/04 A3036 RMK AO2 SLP215 T01220039 403060078
KTVL 030653Z AUTO 00000KT 10SM FEW120 14/04 A3036 RMK AO2 SLP217 T01390039
KTVL 030553Z AUTO 00000KT 10SM CLR 16/04 A3036 RMK AO2 SLP215 T01560039 10289 20144 50003
KTVL 030453Z AUTO 00000KT 10SM CLR 17/04 A3036 RMK AO2 SLP217 T01670039
KTVL 030353Z AUTO 28003KT 10SM CLR 19/04 A3036 RMK AO2 SLP216 T01890039
KTVL 030253Z AUTO VRB03KT 10SM CLR 23/03 A3035 RMK AO2 SLP218 T02280033 53004
KTVL 030153Z AUTO 20005KT 10SM CLR 26/02 A3034 RMK AO2 SLP219 T02610017
KTVL 030053Z AUTO 10SM CLR 28/01 A3034 RMK AO2 SLP216 T02780011
KTVL 022353Z AUTO 10SM CLR 29/01 A3034 RMK AO2 SLP211 T02890006 10306 20250 56006
KTVL 022253Z AUTO 19006KT 10SM CLR 28/00 A3034 RMK AO2 SLP212 T02830000
KTVL 022153Z AUTO 20009G14KT 170V240 10SM CLR 29/00 A3035 RMK AO2 SLP211 T02940000
KTVL 022053Z AUTO 10008KT 040V170 10SM CLR 29/04 A3036 RMK AO2 SLP215 T02940039 56006
KTVL 021953Z AUTO VRB04KT 10SM CLR 27/08 A3037 RMK AO2 SLP219 T02670078
KTVL 021920Z AUTO VRB03KT 7SM CLR 26/09 A3037 RMK AO2 T02610094
KTVL 021911Z AUTO VRB03KT 2 1/2SM HZ CLR 27/09 A3037 RMK AO2 T02720094
KTVL 021853Z AUTO VRB05KT 10SM CLR 26/07 A3037 RMK AO2 SLP219 T02610067
KTVL 021753Z AUTO 35004KT 10SM CLR 25/07 A3038 RMK AO2 SLP222 T02500067 10250 20078 58007
KTVL 021653Z AUTO 03004KT 10SM CLR 23/07 A3039 RMK AO2 SLP226 T02280067
KTVL 021553Z AUTO VRB03KT 10SM CLR 21/06 A3040 RMK AO2 SLP230 T02060061
KTVL 021453Z AUTO 15003KT 10SM CLR 13/05 A3041 RMK AO2 SLP237 T01330050 51007
KTVL 021353Z AUTO 18003KT 10SM CLR 08/03 A3040 RMK AO2 SLP242 T00780033
KTVL 021253Z AUTO 20003KT 10SM CLR 08/03 A3039 RMK AO2 SLP237 T00780033
KTVL 021153Z AUTO 19003KT 10SM CLR 08/03 A3038 RMK AO2 SLP230 T00830033 10150 20083 55000
KTVL 021053Z AUTO 19003KT 10SM CLR 09/03 A3038 RMK AO2 SLP229 T00940028
KTVL 020953Z AUTO 20003KT 10SM CLR 10/03 A3038 RMK AO2 SLP228 T01000033
KTVL 020853Z AUTO 00000KT 10SM CLR 11/03 A3038 RMK AO2 SLP228 T01060033 58000
KTVL 020753Z AUTO 00000KT 10SM CLR 12/03 A3039 RMK AO2 SLP226 T01170028 402720083
KTVL 020653Z AUTO 00000KT 10SM CLR 13/02 A3039 RMK AO2 SLP227 T01330022
KTVL 020553Z AUTO 00000KT 10SM CLR 14/03 A3038 RMK AO2 SLP225 T01440028 10272 20144 51011
KTVL 020453Z AUTO 00000KT 10SM CLR 17/02 A3038 RMK AO2 SLP221 T01670022
KTVL 020353Z AUTO 00000KT 10SM CLR 19/02 A3036 RMK AO2 SLP215 T01890022
KTVL 020253Z AUTO 21003KT 10SM CLR 23/02 A3034 RMK AO2 SLP215 T02280017 53007
KTVL 020153Z AUTO 19009KT 10SM CLR 25/02 A3032 RMK AO2 SLP211 T02500017
KTVL 020053Z AUTO 20008KT 180V250 10SM BKN100 27/02 A3032 RMK AO2 SLP206 T02670022
KTVL 012353Z AUTO 08005KT 10SM OVC090 27/04 A3032 RMK AO2 SLP204 T02670039 10272 20233 56007
KTVL 012253Z AUTO 02009KT 10SM BKN095 BKN110 26/05 A3032 RMK AO2 SLP205 T02560050
KTVL 012153Z AUTO 00000KT 10SM CLR 26/06 A3033 RMK AO2 LTG DSNT NE AND E SLP206 T02610056